Time;durP1;ratioP1;P1;durP2;ratioP2;P2;SDS_P1;SDS_P2;PMS_P1;PMS_P2;Temp;Humidity;BMP_temperature;BMP_pressure;BME280_temperature;BME280_humidity;BME280_pressure;Samples;Min_cycle;Max_cycle;Signal;HPM_P1;HPM_P2
2022/10/25 00:00:47;;;;;;;7.38;0.93;;;24.40;24.80;;;;;;5069094;28;20084;-65
2022/10/25 00:03:14;;;;;;;2.65;0.50;;;24.30;25.10;;;;;;5068285;28;20083;-63
2022/10/25 00:05:41;;;;;;;1.77;0.70;;;24.20;25.00;;;;;;5068200;28;20092;-59
2022/10/25 00:08:08;;;;;;;9.55;0.90;;;24.10;25.30;;;;;;5064461;28;20152;-61
2022/10/25 00:10:35;;;;;;;5.70;0.88;;;24.00;25.00;;;;;;5068265;28;20115;-65
2022/10/25 00:13:01;;;;;;;1.95;0.50;;;23.90;25.40;;;;;;5073113;28;20067;-65
2022/10/25 00:15:28;;;;;;;4.82;0.90;;;24.00;24.80;;;;;;5068157;28;20093;-67
2022/10/25 00:17:54;;;;;;;3.95;0.55;;;24.00;25.10;;;;;;5067573;28;20546;-63
2022/10/25 00:20:21;;;;;;;6.22;0.73;;;23.90;24.90;;;;;;5073894;28;20089;-65
2022/10/25 00:22:47;;;;;;;1.15;0.55;;;23.70;24.90;;;;;;5073822;28;20073;-64
2022/10/25 00:25:14;;;;;;;5.85;0.73;;;23.50;24.90;;;;;;5072708;28;20117;-68
2022/10/25 00:27:40;;;;;;;2.83;0.60;;;23.50;25.20;;;;;;5069890;28;20187;-66
2022/10/25 00:30:07;;;;;;;3.35;0.70;;;23.30;25.40;;;;;;5068983;28;20069;-68
2022/10/25 00:32:34;;;;;;;4.50;0.90;;;23.40;25.50;;;;;;5066203;28;20076;-68
2022/10/25 00:35:01;;;;;;;3.53;1.00;;;23.30;25.70;;;;;;5071181;28;20081;-68
2022/10/25 00:37:27;;;;;;;1.95;0.95;;;23.20;25.50;;;;;;5068104;28;20501;-64
2022/10/25 00:39:54;;;;;;;6.18;1.02;;;23.10;25.50;;;;;;5068594;28;20076;-66
2022/10/25 00:42:23;;;;;;;6.55;0.95;;;23.10;25.70;;;;;;5068203;28;20149;-66
2022/10/25 00:44:58;;;;;;;6.15;1.02;;;22.90;25.60;;;;;;5068372;28;20072;-68
2022/10/25 00:47:45;;;;;;;4.78;0.90;;;22.90;25.90;;;;;;5072446;28;20085;-65
2022/10/25 00:50:39;;;;;;;5.50;1.02;;;22.80;25.80;;;;;;5074220;28;20073;-68
2022/10/25 00:53:12;;;;;;;6.82;0.93;;;22.80;26.00;;;;;;5071073;28;20104;-71
2022/10/25 00:55:44;;;;;;;11.90;1.15;;;22.70;26.10;;;;;;5077231;28;20068;-68
2022/10/25 00:58:18;;;;;;;5.85;0.90;;;22.60;26.10;;;;;;5073469;28;20093;-67
2022/10/25 01:00:44;;;;;;;6.47;0.95;;;22.50;26.30;;;;;;5071313;28;20476;-68
2022/10/25 01:03:13;;;;;;;7.38;0.90;;;22.40;26.20;;;;;;5072507;28;20112;-63
2022/10/25 01:05:41;;;;;;;10.07;1.42;;;22.40;26.10;;;;;;5071746;28;20485;-67
2022/10/25 01:08:08;;;;;;;7.63;1.17;;;22.40;26.30;;;;;;5067700;28;20152;-66
2022/10/25 01:10:35;;;;;;;8.60;1.27;;;22.30;26.30;;;;;;5072719;28;20110;-68
2022/10/25 01:13:02;;;;;;;4.57;1.00;;;22.20;26.20;;;;;;5071528;28;20077;-67
2022/10/25 01:15:38;;;;;;;11.85;1.20;;;22.20;26.30;;;;;;5072067;28;20072;-68
2022/10/25 01:18:16;;;;;;;6.00;1.47;;;22.10;26.30;;;;;;5078037;28;20077;-68
2022/10/25 01:21:16;;;;;;;6.25;1.40;;;22.10;26.90;;;;;;5073936;28;20358;-67
2022/10/25 01:24:03;;;;;;;10.68;1.55;;;22.00;26.70;;;;;;5076950;28;20769;-68
2022/10/25 01:26:38;;;;;;;13.60;2.38;;;21.90;27.20;;;;;;5076497;28;20180;-69
2022/10/25 01:29:34;;;;;;;9.77;2.10;;;21.80;26.90;;;;;;5071421;28;20065;-69
2022/10/25 01:32:15;;;;;;;10.85;2.05;;;21.80;26.90;;;;;;5071938;28;20513;-67
2022/10/25 01:34:51;;;;;;;14.32;2.53;;;21.80;27.00;;;;;;5071572;28;20090;-71
2022/10/25 01:37:21;;;;;;;12.85;2.60;;;21.70;27.30;;;;;;5080523;28;20112;-68
2022/10/25 01:40:02;;;;;;;14.38;2.45;;;21.60;27.50;;;;;;5071148;28;20109;-65
2022/10/25 01:42:34;;;;;;;12.18;3.10;;;21.70;27.40;;;;;;5074326;28;20134;-67
2022/10/25 01:45:15;;;;;;;11.35;2.55;;;21.60;27.50;;;;;;5074234;28;20154;-67
2022/10/25 01:47:55;;;;;;;14.20;3.17;;;21.50;27.30;;;;;;5078322;28;20064;-66
2022/10/25 01:50:24;;;;;;;8.93;3.03;;;21.50;27.30;;;;;;5072013;28;20504;-67
2022/10/25 01:52:50;;;;;;;14.20;2.90;;;21.50;27.60;;;;;;5071447;28;20107;-67
2022/10/25 01:55:18;;;;;;;12.20;3.05;;;21.40;27.40;;;;;;5072941;28;20089;-68
2022/10/25 01:58:15;;;;;;;13.05;3.10;;;21.40;27.40;;;;;;5076722;28;20088;-66
2022/10/25 02:01:00;;;;;;;13.15;3.03;;;21.40;27.40;;;;;;5079687;28;20146;-66
2022/10/25 02:03:38;;;;;;;9.13;3.38;;;21.30;27.50;;;;;;5072005;28;20111;-66
2022/10/25 02:06:10;;;;;;;16.55;3.20;;;21.30;27.60;;;;;;5071567;28;20188;-66
2022/10/25 02:08:45;;;;;;;11.65;2.88;;;21.20;27.80;;;;;;5069653;28;20498;-65
2022/10/25 02:11:22;;;;;;;15.98;3.13;;;21.20;27.50;;;;;;5071133;28;20417;-65
2022/10/25 02:14:07;;;;;;;18.77;2.67;;;21.10;27.50;;;;;;5071504;28;20072;-65
2022/10/25 02:16:52;;;;;;;18.48;2.97;;;21.10;27.40;;;;;;5069223;28;20073;-65
2022/10/25 02:19:24;;;;;;;18.83;3.22;;;21.10;27.90;;;;;;5073737;28;20217;-65
2022/10/25 02:21:51;;;;;;;13.40;3.20;;;21.10;27.30;;;;;;5071489;28;20505;-66
2022/10/25 02:24:22;;;;;;;15.20;2.75;;;21.00;27.70;;;;;;5070607;28;20471;-65
2022/10/25 02:26:50;;;;;;;13.95;2.97;;;21.00;27.70;;;;;;5071122;28;20445;-65
2022/10/25 02:29:19;;;;;;;15.45;3.30;;;21.00;27.70;;;;;;5070806;28;20534;-66
2022/10/25 02:31:46;;;;;;;20.48;3.53;;;20.90;27.90;;;;;;5071134;28;20078;-65
2022/10/25 02:34:12;;;;;;;13.75;4.07;;;20.90;28.30;;;;;;5074227;28;20100;-67
2022/10/25 02:36:38;;;;;;;18.05;3.50;;;20.80;28.80;;;;;;5074889;28;20127;-65
2022/10/25 02:39:06;;;;;;;11.70;3.40;;;20.70;28.50;;;;;;5071269;28;20161;-64
2022/10/25 02:41:33;;;;;;;30.63;3.58;;;20.70;29.70;;;;;;5073287;28;20117;-66
2022/10/25 02:43:59;;;;;;;18.83;3.40;;;20.60;30.00;;;;;;5071345;28;20569;-66
2022/10/25 02:46:26;;;;;;;12.70;3.38;;;20.60;29.20;;;;;;5071441;28;20085;-65
2022/10/25 02:48:52;;;;;;;28.60;3.88;;;20.50;29.90;;;;;;5070841;28;20154;-66
2022/10/25 02:51:18;;;;;;;25.73;4.18;;;20.40;29.70;;;;;;5070520;28;20096;-66
2022/10/25 02:53:46;;;;;;;21.50;4.40;;;20.40;29.60;;;;;;5070805;28;20069;-67
2022/10/25 02:56:15;;;;;;;27.15;5.03;;;20.40;29.40;;;;;;5070606;28;20073;-66
2022/10/25 02:58:43;;;;;;;40.65;5.80;;;20.40;29.60;;;;;;5079185;28;20156;-66
2022/10/25 03:01:10;;;;;;;41.42;5.72;;;20.30;30.00;;;;;;5070483;28;20108;-67
2022/10/25 03:03:36;;;;;;;46.50;5.10;;;20.10;30.80;;;;;;5071128;28;20557;-66
2022/10/25 03:06:03;;;;;;;42.08;5.25;;;20.10;31.00;;;;;;5070974;28;20538;-66
2022/10/25 03:08:30;;;;;;;36.72;5.63;;;20.00;32.90;;;;;;5069879;28;20114;-66
2022/10/25 03:10:57;;;;;;;38.45;5.63;;;19.80;33.60;;;;;;5067322;28;20076;-69
2022/10/25 03:13:23;;;;;;;45.17;6.50;;;19.70;34.70;;;;;;5072288;28;20077;-63
2022/10/25 03:15:49;;;;;;;51.40;6.50;;;19.80;32.60;;;;;;5069989;28;20096;-66
2022/10/25 03:18:16;;;;;;;56.53;6.60;;;19.70;32.30;;;;;;5069899;28;20069;-66
2022/10/25 03:20:43;;;;;;;51.05;6.72;;;19.70;32.60;;;;;;5070457;28;20073;-67
2022/10/25 03:23:10;;;;;;;57.55;6.35;;;19.70;32.50;;;;;;5072560;28;20755;-67
2022/10/25 03:25:37;;;;;;;34.70;5.55;;;19.60;32.70;;;;;;5074712;28;20092;-66
2022/10/25 03:28:04;;;;;;;40.90;7.50;;;19.50;33.20;;;;;;5075621;28;20164;-66
2022/10/25 03:30:31;;;;;;;50.13;8.25;;;19.40;34.50;;;;;;5073693;28;20088;-67
2022/10/25 03:32:58;;;;;;;53.58;9.82;;;19.40;33.30;;;;;;5069653;28;20119;-70
2022/10/25 03:35:25;;;;;;;45.95;13.98;;;19.40;32.40;;;;;;5072447;28;20105;-67
2022/10/25 03:37:52;;;;;;;53.28;11.85;;;19.30;32.20;;;;;;5071419;28;20089;-66
2022/10/25 03:40:19;;;;;;;55.25;12.13;;;19.30;33.10;;;;;;5072597;28;20572;-67
2022/10/25 03:42:46;;;;;;;61.45;10.57;;;19.30;33.90;;;;;;5069966;28;20097;-66
2022/10/25 03:45:12;;;;;;;32.97;10.18;;;19.20;34.00;;;;;;5070052;28;20080;-67
2022/10/25 03:47:39;;;;;;;40.78;10.85;;;19.20;33.00;;;;;;5070037;28;20069;-65
2022/10/25 03:50:06;;;;;;;53.38;16.90;;;19.10;33.00;;;;;;5068598;28;20198;-67
2022/10/25 03:52:33;;;;;;;48.33;13.18;;;19.10;32.70;;;;;;5073776;28;20072;-66
2022/10/25 03:55:00;;;;;;;49.17;11.13;;;19.10;32.70;;;;;;5052012;28;20073;-66
2022/10/25 03:57:26;;;;;;;42.20;9.93;;;19.10;34.80;;;;;;5071916;28;20100;-65
2022/10/25 03:59:53;;;;;;;39.65;9.45;;;19.10;35.00;;;;;;5068206;28;20592;-64
2022/10/25 04:02:19;;;;;;;36.50;9.35;;;18.90;34.20;;;;;;5069242;28;20077;-68
2022/10/25 04:04:45;;;;;;;44.42;8.80;;;19.00;34.70;;;;;;5073776;28;20523;-68
2022/10/25 04:07:12;;;;;;;44.13;8.85;;;19.00;33.60;;;;;;5073768;28;20606;-65
2022/10/25 04:09:38;;;;;;;45.38;9.43;;;19.00;33.40;;;;;;5069313;28;20074;-67
2022/10/25 04:12:05;;;;;;;43.95;8.45;;;19.00;34.30;;;;;;5067616;28;20601;-67
2022/10/25 04:14:31;;;;;;;53.28;9.02;;;18.90;34.00;;;;;;5069160;28;20480;-67
2022/10/25 04:16:58;;;;;;;70.72;10.13;;;18.80;34.00;;;;;;5069414;28;20081;-67
2022/10/25 04:19:24;;;;;;;46.53;9.05;;;18.80;34.10;;;;;;5069508;28;20069;-66
2022/10/25 04:21:51;;;;;;;71.55;17.60;;;18.80;35.50;;;;;;5068564;28;20069;-66
2022/10/25 04:24:17;;;;;;;70.57;9.02;;;18.70;34.40;;;;;;5072445;28;20134;-66
2022/10/25 04:26:43;;;;;;;49.30;8.73;;;18.70;33.80;;;;;;5069169;28;20088;-66
2022/10/25 04:29:10;;;;;;;73.97;9.93;;;18.70;33.10;;;;;;5070509;28;20065;-68
2022/10/25 04:31:37;;;;;;;59.72;9.02;;;18.60;34.40;;;;;;5069432;28;20080;-66
2022/10/25 04:34:03;;;;;;;57.10;8.75;;;18.60;34.30;;;;;;5069106;28;20122;-69
2022/10/25 04:36:30;;;;;;;69.78;9.82;;;18.60;33.90;;;;;;5069694;28;20466;-64
2022/10/25 04:38:57;;;;;;;62.88;9.75;;;18.50;34.20;;;;;;5069441;28;20107;-65
2022/10/25 04:41:23;;;;;;;47.03;8.52;;;18.50;34.50;;;;;;5069813;28;20077;-65
2022/10/25 04:43:51;;;;;;;49.20;8.63;;;18.50;34.40;;;;;;5070076;28;20080;-66
2022/10/25 04:46:18;;;;;;;61.88;9.38;;;18.40;34.30;;;;;;5069385;28;20089;-67
2022/10/25 04:48:45;;;;;;;71.80;10.23;;;18.30;34.60;;;;;;5069812;28;20118;-65
2022/10/25 04:51:12;;;;;;;66.32;9.50;;;18.30;35.50;;;;;;5069948;28;20108;-66
2022/10/25 04:53:38;;;;;;;57.13;9.75;;;18.20;35.80;;;;;;5070906;28;20472;-69
2022/10/25 04:56:11;;;;;;;63.78;10.60;;;18.20;35.90;;;;;;5076145;28;20073;-66
2022/10/25 04:58:37;;;;;;;58.58;9.63;;;18.20;35.80;;;;;;5069342;28;20542;-64
2022/10/25 05:01:08;;;;;;;64.78;9.57;;;18.20;35.90;;;;;;5069454;28;20174;-66
2022/10/25 05:03:35;;;;;;;54.67;8.77;;;18.10;37.20;;;;;;5071072;28;20115;-67
2022/10/25 05:06:13;;;;;;;75.22;10.90;;;18.00;37.50;;;;;;5072215;28;20759;-66
2022/10/25 05:08:41;;;;;;;60.92;9.13;;;17.90;38.10;;;;;;5071704;28;20151;-67
2022/10/25 05:11:09;;;;;;;76.13;10.27;;;17.90;37.10;;;;;;5070615;28;20126;-65
2022/10/25 05:13:36;;;;;;;73.68;10.00;;;17.90;37.50;;;;;;5070297;28;20171;-66
2022/10/25 05:16:03;;;;;;;65.55;10.70;;;17.90;38.20;;;;;;5067598;28;20073;-66
2022/10/25 05:18:32;;;;;;;83.55;12.55;;;18.00;38.60;;;;;;5067821;28;20180;-67
2022/10/25 05:21:04;;;;;;;124.40;13.98;;;17.90;39.30;;;;;;5069280;28;20089;-66
2022/10/25 05:23:31;;;;;;;98.30;13.07;;;17.90;39.20;;;;;;5068019;28;20492;-63
2022/10/25 05:26:07;;;;;;;79.80;15.18;;;17.90;38.20;;;;;;5067727;28;20116;-63
2022/10/25 05:28:35;;;;;;;82.53;20.60;;;17.80;37.70;;;;;;5068181;28;20858;-64
2022/10/25 05:31:07;;;;;;;81.07;21.17;;;17.80;38.00;;;;;;5068130;28;20092;-61
2022/10/25 05:33:33;;;;;;;85.25;14.57;;;17.80;39.20;;;;;;5071104;28;20069;-63
2022/10/25 05:36:01;;;;;;;130.93;20.70;;;17.80;39.00;;;;;;5071108;28;20127;-65
2022/10/25 05:38:29;;;;;;;84.45;17.20;;;17.80;39.20;;;;;;5071007;28;20556;-64
2022/10/25 05:40:58;;;;;;;75.85;14.68;;;17.80;40.60;;;;;;5071826;28;20109;-64
2022/10/25 05:43:25;;;;;;;64.93;13.85;;;17.80;39.90;;;;;;5073961;28;20096;-65
2022/10/25 05:45:59;;;;;;;79.38;13.13;;;17.80;39.80;;;;;;5074415;28;20184;-64
2022/10/25 05:48:26;;;;;;;65.75;10.30;;;17.70;39.80;;;;;;5071292;28;20530;-65
2022/10/25 05:50:52;;;;;;;69.20;12.07;;;17.70;40.10;;;;;;5071311;28;20142;-64
2022/10/25 05:53:19;;;;;;;75.18;14.10;;;17.70;39.90;;;;;;5072712;28;20160;-65
2022/10/25 05:55:45;;;;;;;68.80;12.82;;;17.70;40.50;;;;;;5071111;28;20084;-65
2022/10/25 05:58:12;;;;;;;69.10;11.65;;;17.70;40.60;;;;;;5073832;28;20542;-65
2022/10/25 06:00:38;;;;;;;63.92;10.82;;;17.70;40.50;;;;;;5072051;28;20147;-66
2022/10/25 06:03:04;;;;;;;;;;;17.60;40.90;;;;;;5071326;28;20089;-66
2022/10/25 06:05:32;;;;;;;98.55;14.32;;;17.60;41.10;;;;;;5074775;28;20421;-64
2022/10/25 06:07:58;;;;;;;79.75;13.45;;;17.50;40.30;;;;;;5071549;28;20103;-67
2022/10/25 06:10:24;;;;;;;;;;;17.50;40.50;;;;;;5071570;28;20069;-67
2022/10/25 06:12:50;;;;;;;84.00;12.43;;;17.50;40.80;;;;;;5069436;28;19972;-66
2022/10/25 06:15:16;;;;;;;;;;;17.40;40.30;;;;;;5070773;28;20104;-65
2022/10/25 06:17:43;;;;;;;59.38;10.70;;;17.40;40.20;;;;;;5070749;28;20422;-64
2022/10/25 06:20:09;;;;;;;;;;;17.40;40.80;;;;;;5072681;28;20573;-67
2022/10/25 06:22:35;;;;;;;70.95;10.98;;;17.30;40.40;;;;;;5075983;28;19995;-64
2022/10/25 06:25:02;;;;;;;61.28;10.73;;;17.20;40.90;;;;;;5077930;28;20641;-66
2022/10/25 06:27:28;;;;;;;;;;;17.20;40.20;;;;;;5074036;28;20197;-64
2022/10/25 06:29:54;;;;;;;58.13;10.13;;;17.20;40.40;;;;;;5076226;28;20044;-64
2022/10/25 06:32:20;;;;;;;;;;;17.20;40.80;;;;;;5070578;28;20129;-64
2022/10/25 06:34:46;;;;;;;67.68;10.80;;;17.10;40.60;;;;;;5070326;28;20469;-64
2022/10/25 06:37:14;;;;;;;;;;;17.10;40.70;;;;;;5076586;28;20621;-67
2022/10/25 06:39:40;;;;;;;;;;;17.10;40.80;;;;;;5073164;28;20404;-67
2022/10/25 06:42:06;;;;;;;46.72;10.38;;;17.20;41.90;;;;;;5076620;28;20090;-68
2022/10/25 06:44:32;;;;;;;50.50;9.70;;;17.10;41.90;;;;;;5070487;28;20479;-66
2022/10/25 06:46:59;;;;;;;;;;;17.10;41.50;;;;;;5073836;28;20490;-66
2022/10/25 06:49:25;;;;;;;43.50;9.82;;;17.10;41.20;;;;;;5075244;28;19968;-65
2022/10/25 06:51:52;;;;;;;50.03;10.45;;;17.00;42.50;;;;;;5074298;28;20075;-66
2022/10/25 06:54:19;;;;;;;59.40;10.00;;;16.80;42.30;;;;;;5070705;28;20080;-65
2022/10/25 06:56:45;;;;;;;46.72;9.50;;;16.80;43.20;;;;;;5074627;28;20099;-65
2022/10/25 06:59:11;;;;;;;;;;;16.80;42.80;;;;;;5073771;28;20097;-64
2022/10/25 07:01:38;;;;;;;60.42;9.68;;;16.80;42.80;;;;;;5071941;28;19981;-65
2022/10/25 07:04:04;;;;;;;58.40;11.00;;;16.80;42.80;;;;;;5070706;28;20085;-67
2022/10/25 07:06:34;;;;;;;65.05;10.25;;;16.70;43.30;;;;;;5078386;28;20112;-65
2022/10/25 07:09:01;;;;;;;65.70;11.48;;;16.70;43.40;;;;;;5071690;28;20077;-66
2022/10/25 07:11:30;;;;;;;64.55;12.35;;;16.60;43.50;;;;;;5073437;28;20107;-66
2022/10/25 07:14:00;;;;;;;62.47;10.95;;;16.50;45.10;;;;;;5068427;28;20087;-64
2022/10/25 07:16:28;;;;;;;56.40;11.23;;;16.50;45.10;;;;;;5071837;28;20069;-65
2022/10/25 07:18:59;;;;;;;67.00;10.77;;;16.50;44.30;;;;;;5071128;28;20084;-65
2022/10/25 07:21:26;;;;;;;64.38;11.43;;;16.60;44.40;;;;;;5070147;28;20135;-65
2022/10/25 07:23:53;;;;;;;66.63;10.98;;;16.60;44.50;;;;;;5071190;28;20487;-67
2022/10/25 07:26:25;;;;;;;64.03;11.30;;;16.50;45.40;;;;;;5069283;28;20081;-66
2022/10/25 07:28:53;;;;;;;74.43;11.80;;;16.50;45.90;;;;;;5069051;28;20069;-66
2022/10/25 07:31:22;;;;;;;58.00;11.15;;;16.50;45.30;;;;;;5070857;28;20078;-66
2022/10/25 07:33:50;;;;;;;84.80;13.18;;;16.50;45.40;;;;;;5069015;28;20214;-66
2022/10/25 07:36:17;;;;;;;64.00;12.90;;;16.30;45.70;;;;;;5069440;28;20109;-66
2022/10/25 07:38:43;;;;;;;63.53;12.73;;;16.30;46.10;;;;;;5071971;28;20163;-66
2022/10/25 07:41:10;;;;;;;67.72;13.40;;;16.30;45.50;;;;;;5071105;28;20072;-65
2022/10/25 07:43:36;;;;;;;;;;;16.40;45.60;;;;;;5075904;28;20091;-64
2022/10/25 07:46:03;;;;;;;71.55;14.80;;;16.40;45.90;;;;;;5074020;28;20426;-65
2022/10/25 07:48:30;;;;;;;57.03;14.88;;;16.40;45.60;;;;;;5070380;28;20073;-65
2022/10/25 07:50:56;;;;;;;;;;;16.30;46.40;;;;;;5072584;28;20069;-66
2022/10/25 07:53:22;;;;;;;71.80;25.10;;;16.40;45.80;;;;;;5070282;28;19957;-65
2022/10/25 07:55:55;;;;;;;91.78;28.83;;;16.20;45.40;;;;;;5069656;28;20572;-66
2022/10/25 07:58:21;;;;;;;88.03;31.20;;;16.20;46.30;;;;;;5069608;28;20097;-65
2022/10/25 08:00:48;;;;;;;88.00;30.77;;;16.20;45.50;;;;;;5069258;28;20166;-65
2022/10/25 08:03:14;;;;;;;;;;;16.20;46.00;;;;;;5069305;28;20075;-66
2022/10/25 08:05:44;;;;;;;103.43;34.03;;;16.20;46.10;;;;;;5068635;28;20290;-66
2022/10/25 08:08:11;;;;;;;81.03;30.88;;;16.30;45.10;;;;;;5073273;28;20104;-65
2022/10/25 08:10:37;;;;;;;76.57;28.80;;;16.20;45.30;;;;;;5068217;28;20550;-66
2022/10/25 08:13:03;;;;;;;;;;;16.20;46.30;;;;;;5070968;28;20068;-66
2022/10/25 08:15:30;;;;;;;76.65;28.17;;;15.90;46.00;;;;;;5066332;28;21168;-64
2022/10/25 08:17:56;;;;;;;;;;;15.90;44.80;;;;;;5068561;28;20073;-66
2022/10/25 08:20:23;;;;;;;90.00;30.38;;;15.90;44.60;;;;;;5068872;28;20018;-66
2022/10/25 08:22:49;;;;;;;;;;;16.00;45.00;;;;;;5068535;28;20084;-64
2022/10/25 08:25:15;;;;;;;69.30;29.15;;;16.10;44.40;;;;;;5067991;28;20395;-66
2022/10/25 08:27:42;;;;;;;68.43;28.15;;;16.00;43.50;;;;;;5069873;28;20065;-66
2022/10/25 08:30:09;;;;;;;70.90;25.17;;;16.00;43.70;;;;;;5072261;28;20566;-65
2022/10/25 08:32:38;;;;;;;73.55;26.20;;;16.00;44.40;;;;;;5068570;28;20069;-64
2022/10/25 08:35:05;;;;;;;69.40;23.58;;;16.10;44.50;;;;;;5067908;28;20091;-66
2022/10/25 08:37:31;;;;;;;65.60;23.92;;;16.10;43.90;;;;;;5068324;28;20211;-65
2022/10/25 08:39:57;;;;;;;;;;;15.90;44.60;;;;;;5068905;28;20089;-64
2022/10/25 08:42:46;;;;;;;58.05;20.55;;;15.80;44.90;;;;;;5069155;28;19964;-65
2022/10/25 08:45:35;;;;;;;57.05;18.10;;;15.70;45.60;;;;;;5067533;28;20093;-63
2022/10/25 08:48:03;;;;;;;57.20;17.67;;;15.80;45.80;;;;;;5068021;28;20069;-66
2022/10/25 08:50:42;;;;;;;146.07;21.27;;;15.80;45.80;;;;;;5068764;28;20085;-65
2022/10/25 08:53:17;;;;;;;43.90;14.95;;;15.80;46.20;;;;;;5068802;28;20077;-65
2022/10/25 08:55:44;;;;;;;41.17;14.57;;;15.80;45.60;;;;;;5066972;28;20084;-64
2022/10/25 08:58:25;;;;;;;49.05;16.35;;;15.70;45.60;;;;;;5067550;28;20111;-63
2022/10/25 09:00:52;;;;;;;49.20;14.90;;;15.70;45.70;;;;;;5068249;28;20085;-65
2022/10/25 09:03:24;;;;;;;40.17;14.57;;;15.60;45.60;;;;;;5068705;28;20080;-65
2022/10/25 09:06:09;;;;;;;48.30;14.65;;;15.70;46.10;;;;;;5071093;28;21080;-65
2022/10/25 09:09:24;;;;;;;43.58;14.48;;;15.60;46.10;;;;;;5072596;28;20590;-65
2022/10/25 09:12:09;;;;;;;43.47;14.25;;;15.60;46.30;;;;;;5070716;28;20496;-65
2022/10/25 09:15:10;;;;;;;50.97;15.10;;;15.50;46.80;;;;;;5072412;28;20069;-66
2022/10/25 09:17:47;;;;;;;37.67;14.68;;;15.50;47.10;;;;;;5069577;28;20064;-65
2022/10/25 09:20:46;;;;;;;49.90;14.45;;;15.50;47.00;;;;;;5071808;28;20725;-66
2022/10/25 09:23:33;;;;;;;48.65;15.88;;;15.50;47.40;;;;;;5061339;28;20077;-66
2022/10/25 09:26:08;;;;;;;40.70;14.03;;;15.50;47.50;;;;;;5069662;28;20097;-64
2022/10/25 09:29:09;;;;;;;41.30;13.02;;;15.50;47.90;;;;;;5071261;28;20316;-65
2022/10/25 09:31:47;;;;;;;34.65;13.68;;;15.50;48.10;;;;;;5069650;28;20095;-64
2022/10/25 09:34:16;;;;;;;44.55;15.38;;;15.40;48.30;;;;;;5072379;28;20091;-66
2022/10/25 09:36:46;;;;;;;55.95;14.30;;;15.50;48.60;;;;;;5071478;28;20145;-65
2022/10/25 09:39:50;;;;;;;50.83;13.15;;;15.40;48.60;;;;;;5071124;28;20124;-66
2022/10/25 09:42:24;;;;;;;31.42;12.77;;;15.30;48.10;;;;;;5029643;28;20127;-66
2022/10/25 09:45:16;;;;;;;47.75;12.95;;;15.20;48.40;;;;;;5029999;28;20089;-65
2022/10/25 09:47:44;;;;;;;50.10;13.85;;;15.00;49.00;;;;;;5021462;28;20105;-64
2022/10/25 09:50:14;;;;;;;34.72;13.02;;;14.80;50.00;;;;;;5030988;28;20073;-66
2022/10/25 09:53:06;;;;;;;51.30;14.68;;;14.90;50.70;;;;;;5029687;28;20097;-65
2022/10/25 09:55:38;;;;;;;47.75;15.75;;;15.00;50.50;;;;;;5032439;28;20096;-63
2022/10/25 09:58:06;;;;;;;51.90;14.80;;;15.10;50.10;;;;;;5029382;28;20741;-64
2022/10/25 10:00:34;;;;;;;42.92;14.38;;;15.10;49.60;;;;;;5029354;28;20101;-68
2022/10/25 10:03:01;;;;;;;50.50;15.60;;;14.90;49.30;;;;;;5029241;28;20140;-64
2022/10/25 10:05:27;;;;;;;;;;;14.90;49.20;;;;;;5029647;28;20147;-65
2022/10/25 10:07:54;;;;;;;44.50;13.00;;;14.90;49.40;;;;;;5027620;28;20023;-67
2022/10/25 10:10:23;;;;;;;;;;;15.00;49.70;;;;;;5037797;28;20089;-67
2022/10/25 10:12:58;;;;;;;45.72;11.77;;;14.90;50.40;;;;;;5030089;28;20496;-66
2022/10/25 10:15:30;;;;;;;35.22;11.90;;;14.80;50.40;;;;;;5028970;28;20089;-66
2022/10/25 10:18:32;;;;;;;41.55;11.93;;;14.60;50.60;;;;;;5047505;28;20089;-65
2022/10/25 10:21:15;;;;;;;37.28;11.18;;;14.70;50.60;;;;;;5011748;28;20497;-66
2022/10/25 10:23:58;;;;;;;32.75;10.90;;;14.70;50.10;;;;;;5029349;28;20090;-66
2022/10/25 10:26:28;;;;;;;38.90;10.98;;;14.70;50.10;;;;;;5030397;28;20474;-65
2022/10/25 10:29:10;;;;;;;36.72;11.40;;;14.80;50.30;;;;;;5036716;28;20082;-66
2022/10/25 10:31:49;;;;;;;38.42;11.48;;;14.90;50.20;;;;;;5030943;28;20117;-65
2022/10/25 10:34:29;;;;;;;35.67;11.68;;;14.80;50.70;;;;;;5028851;28;20078;-67
2022/10/25 10:37:15;;;;;;;40.17;11.85;;;14.80;50.70;;;;;;5029494;28;20132;-66
2022/10/25 10:39:52;;;;;;;31.55;10.90;;;14.80;50.40;;;;;;5029172;28;20503;-67
2022/10/25 10:42:31;;;;;;;29.10;10.65;;;14.80;50.50;;;;;;5029148;28;20098;-64
2022/10/25 10:45:18;;;;;;;27.85;10.10;;;14.60;50.10;;;;;;5028133;28;20364;-66
2022/10/25 10:47:55;;;;;;;35.47;9.05;;;14.60;50.20;;;;;;5028610;28;20101;-66
2022/10/25 10:50:23;;;;;;;27.40;8.27;;;14.60;49.90;;;;;;5028398;28;20522;-65
2022/10/25 10:52:55;;;;;;;19.52;7.10;;;14.60;49.70;;;;;;5028509;28;20066;-66
2022/10/25 10:55:32;;;;;;;18.27;6.30;;;14.60;49.70;;;;;;5031228;28;20074;-65
2022/10/25 10:58:16;;;;;;;;;;;14.50;49.80;;;;;;5070822;28;20562;-66
2022/10/25 11:00:56;;;;;;;20.45;6.15;;;14.50;50.10;;;;;;5073326;28;20029;-66
2022/10/25 11:03:40;;;;;;;17.10;4.70;;;14.50;50.00;;;;;;5070193;28;20077;-65
2022/10/25 11:06:15;;;;;;;12.80;4.13;;;14.40;49.70;;;;;;5072815;28;20451;-66
2022/10/25 11:08:43;;;;;;;12.30;3.50;;;14.40;49.40;;;;;;5069769;28;20590;-65
2022/10/25 11:11:16;;;;;;;17.17;4.22;;;14.40;49.00;;;;;;5070177;28;20108;-66
2022/10/25 11:14:00;;;;;;;14.50;4.22;;;14.40;48.80;;;;;;5069322;28;20065;-64
2022/10/25 11:17:11;;;;;;;20.42;3.85;;;14.30;48.70;;;;;;5074049;28;20069;-66
2022/10/25 11:19:58;;;;;;;13.00;3.30;;;14.30;49.00;;;;;;5025192;28;20479;-64
2022/10/25 11:22:54;;;;;;;18.53;3.53;;;14.30;48.00;;;;;;5027659;28;20459;-63
2022/10/25 11:25:30;;;;;;;11.45;2.78;;;14.30;48.30;;;;;;5026432;28;20090;-66
2022/10/25 11:28:11;;;;;;;11.57;2.60;;;14.10;48.50;;;;;;5028140;28;20073;-66
2022/10/25 11:31:04;;;;;;;15.48;2.40;;;14.00;49.80;;;;;;5027911;28;20649;-67
2022/10/25 11:34:07;;;;;;;7.22;1.92;;;14.00;48.60;;;;;;5027592;28;20081;-65
2022/10/25 11:37:16;;;;;;;5.63;1.67;;;14.10;48.20;;;;;;5027822;28;20117;-64
2022/10/25 11:39:50;;;;;;;;;;;14.20;47.80;;;;;;5027959;28;20073;-64
2022/10/25 11:42:37;;;;;;;10.88;2.28;;;14.00;47.40;;;;;;5027852;28;20044;-65
2022/10/25 11:45:22;;;;;;;5.22;1.42;;;14.00;47.20;;;;;;5026753;28;20082;-64
2022/10/25 11:48:14;;;;;;;10.05;1.55;;;14.10;47.40;;;;;;5034443;28;20508;-66
2022/10/25 11:51:23;;;;;;;8.85;1.30;;;14.20;47.10;;;;;;5026494;28;20086;-66
2022/10/25 11:53:58;;;;;;;8.13;1.50;;;14.10;47.00;;;;;;5026258;28;20078;-66
2022/10/25 11:56:51;;;;;;;5.88;1.40;;;14.10;47.50;;;;;;5047613;28;20761;-66
2022/10/25 11:59:52;;;;;;;4.20;1.50;;;14.10;47.70;;;;;;5059203;28;20534;-67
2022/10/25 12:02:34;;;;;;;13.38;1.65;;;14.10;47.90;;;;;;5034134;28;20113;-66
2022/10/25 12:05:26;;;;;;;12.85;1.45;;;14.10;48.40;;;;;;5032416;28;20550;-66
2022/10/25 12:08:22;;;;;;;12.23;1.42;;;14.10;48.30;;;;;;5032085;28;20175;-67
2022/10/25 12:11:11;;;;;;;7.28;1.60;;;14.10;48.00;;;;;;5029729;28;20481;-67
2022/10/25 12:13:46;;;;;;;6.10;1.50;;;14.10;48.30;;;;;;5044957;28;20084;-66
2022/10/25 12:16:17;;;;;;;9.35;1.40;;;14.10;48.70;;;;;;5043473;28;20076;-65
2022/10/25 12:18:50;;;;;;;8.10;2.13;;;14.00;49.20;;;;;;5049213;28;20101;-63
2022/10/25 12:21:26;;;;;;;11.68;2.80;;;13.90;49.40;;;;;;5038430;28;20081;-67
2022/10/25 12:23:54;;;;;;;6.40;2.50;;;13.90;48.90;;;;;;5032102;28;20169;-65
2022/10/25 12:26:37;;;;;;;14.23;2.40;;;13.90;49.00;;;;;;5036128;28;20139;-65
2022/10/25 12:29:11;;;;;;;12.55;2.30;;;13.90;49.60;;;;;;5044654;28;20549;-67
2022/10/25 12:31:49;;;;;;;10.80;2.30;;;13.90;50.20;;;;;;5038694;28;20298;-66
2022/10/25 12:34:25;;;;;;;10.43;2.38;;;13.70;50.70;;;;;;5036359;28;20454;-66
2022/10/25 12:36:55;;;;;;;15.57;2.75;;;13.60;51.30;;;;;;5033699;28;20171;-67
2022/10/25 12:39:33;;;;;;;14.73;2.45;;;13.70;50.90;;;;;;5056103;28;20085;-67
2022/10/25 12:42:04;;;;;;;8.20;2.63;;;13.70;50.90;;;;;;5067968;28;20073;-66
2022/10/25 12:44:36;;;;;;;16.30;2.63;;;13.70;51.10;;;;;;5080127;28;20077;-65
2022/10/25 12:47:14;;;;;;;12.88;2.78;;;13.60;51.60;;;;;;5068164;28;20111;-64
2022/10/25 12:49:58;;;;;;;15.75;2.40;;;13.60;51.70;;;;;;5067821;28;20085;-66
2022/10/25 12:52:38;;;;;;;21.83;3.35;;;13.50;52.00;;;;;;5068939;28;20081;-66
2022/10/25 12:55:20;;;;;;;25.95;4.55;;;13.60;51.90;;;;;;5068588;28;20097;-67
2022/10/25 12:57:46;;;;;;;30.10;3.85;;;13.60;52.10;;;;;;5068881;28;20077;-66
2022/10/25 13:00:17;;;;;;;16.83;3.72;;;13.70;52.20;;;;;;5068752;28;20120;-66
2022/10/25 13:03:02;;;;;;;17.40;3.20;;;13.70;52.10;;;;;;5077780;28;20430;-66
2022/10/25 13:05:49;;;;;;;16.27;2.63;;;13.70;52.00;;;;;;5068787;28;20077;-63
2022/10/25 13:08:19;;;;;;;14.15;2.40;;;13.70;52.30;;;;;;5067049;28;20152;-67